UAL1819 KEWR-KPBI
Flight info
| Callsign | UAL1819 |
|---|---|
| Flight time | N/A |
| Altitude | 38000 |
| Route | ELVAE NECCK WHITE Q409 CRPLR EARZZ Q131 WAALT Y289 DULEE CLMNT2 |
| Aircraft | B738/M-SDE2E3FGHIRWXY/LB1 |
Departure
| Time | N/A |
|---|---|
| Airport | Newark Liberty International Airport (KEWR) |
Arrival
| Time | 2026-04-14 21:37 |
|---|---|
| Airport | Palm Beach International Airport (KPBI) |
| Time | Latitude | Longitude | Altitude | Speed | Heading |
|---|---|---|---|---|---|
| 2026-04-14 20:52 | 30.71247 | -78.89756 | 38255 ft | 469 kts | 197° |
| 2026-04-14 20:53 | 30.64975 | -78.91872 | 38256 ft | 469 kts | 197° |
| 2026-04-14 20:53 | 30.58709 | -78.93983 | 38251 ft | 470 kts | 197° |
| 2026-04-14 20:54 | 30.52419 | -78.96100 | 38253 ft | 470 kts | 197° |
| 2026-04-14 20:54 | 30.46136 | -78.98212 | 38253 ft | 470 kts | 197° |
| 2026-04-14 20:55 | 30.39871 | -79.00215 | 38250 ft | 471 kts | 194° |
| 2026-04-14 20:55 | 30.33462 | -79.01830 | 38255 ft | 471 kts | 192° |
| 2026-04-14 20:56 | 30.27047 | -79.03427 | 38254 ft | 472 kts | 193° |
| 2026-04-14 20:56 | 30.20635 | -79.05083 | 38253 ft | 472 kts | 193° |
| 2026-04-14 20:57 | 30.14236 | -79.06763 | 38250 ft | 472 kts | 193° |
| 2026-04-14 20:57 | 30.07842 | -79.08442 | 38252 ft | 471 kts | 193° |
| 2026-04-14 20:58 | 30.01441 | -79.10116 | 38253 ft | 471 kts | 193° |
| 2026-04-14 20:58 | 29.95087 | -79.11775 | 38252 ft | 470 kts | 193° |
| 2026-04-14 20:59 | 29.88708 | -79.13439 | 38249 ft | 470 kts | 193° |
| 2026-04-14 20:59 | 29.82324 | -79.15100 | 38247 ft | 469 kts | 193° |
| 2026-04-14 21:00 | 29.75955 | -79.16733 | 38246 ft | 469 kts | 193° |
| 2026-04-14 21:00 | 29.69590 | -79.18352 | 38251 ft | 469 kts | 193° |
| 2026-04-14 21:01 | 29.63224 | -79.19971 | 38248 ft | 468 kts | 193° |
| 2026-04-14 21:01 | 29.56934 | -79.21572 | 38235 ft | 463 kts | 193° |
| 2026-04-14 21:02 | 29.50664 | -79.23166 | 38243 ft | 460 kts | 193° |
| 2026-04-14 21:02 | 29.44435 | -79.24748 | 38242 ft | 458 kts | 193° |
| 2026-04-14 21:03 | 29.38223 | -79.26324 | 38247 ft | 456 kts | 193° |
| 2026-04-14 21:03 | 29.32030 | -79.27893 | 38247 ft | 457 kts | 193° |
| 2026-04-14 21:04 | 29.25880 | -79.29573 | 38240 ft | 457 kts | 196° |
| 2026-04-14 21:04 | 29.19767 | -79.31663 | 37953 ft | 464 kts | 198° |
| 2026-04-14 21:04 | 29.16684 | -79.32754 | 37594 ft | 462 kts | 198° |
| 2026-04-14 21:05 | 29.13619 | -79.33829 | 37159 ft | 458 kts | 198° |
| 2026-04-14 21:05 | 29.10585 | -79.34880 | 36773 ft | 453 kts | 197° |
| 2026-04-14 21:05 | 29.07585 | -79.35907 | 36392 ft | 449 kts | 197° |
| 2026-04-14 21:05 | 29.04596 | -79.36921 | 36015 ft | 446 kts | 197° |
| 2026-04-14 21:06 | 29.01639 | -79.37920 | 35623 ft | 442 kts | 197° |
| 2026-04-14 21:06 | 28.98728 | -79.38901 | 35247 ft | 440 kts | 197° |
| 2026-04-14 21:06 | 28.95799 | -79.39886 | 34862 ft | 437 kts | 197° |
| 2026-04-14 21:06 | 28.92863 | -79.40873 | 34480 ft | 434 kts | 197° |
| 2026-04-14 21:07 | 28.90012 | -79.41831 | 34069 ft | 432 kts | 197° |
| 2026-04-14 21:07 | 28.87131 | -79.42799 | 33644 ft | 430 kts | 197° |
| 2026-04-14 21:07 | 28.84274 | -79.43759 | 33257 ft | 427 kts | 197° |
| 2026-04-14 21:07 | 28.81441 | -79.44710 | 32878 ft | 423 kts | 197° |
| 2026-04-14 21:08 | 28.78625 | -79.45655 | 32500 ft | 420 kts | 197° |
| 2026-04-14 21:08 | 28.75824 | -79.46595 | 32132 ft | 417 kts | 197° |
| 2026-04-14 21:08 | 28.73055 | -79.47523 | 31772 ft | 414 kts | 197° |
| 2026-04-14 21:08 | 28.70300 | -79.48446 | 31412 ft | 412 kts | 197° |
| 2026-04-14 21:09 | 28.67585 | -79.49355 | 31058 ft | 409 kts | 197° |
| 2026-04-14 21:09 | 28.64836 | -79.50275 | 30701 ft | 407 kts | 197° |
| 2026-04-14 21:09 | 28.62159 | -79.51171 | 30349 ft | 405 kts | 197° |
| 2026-04-14 21:09 | 28.59462 | -79.52072 | 29926 ft | 402 kts | 197° |
| 2026-04-14 21:10 | 28.56785 | -79.52967 | 29536 ft | 399 kts | 198° |
| 2026-04-14 21:10 | 28.54129 | -79.53854 | 29150 ft | 396 kts | 198° |
| 2026-04-14 21:10 | 28.51498 | -79.54732 | 28788 ft | 392 kts | 198° |
| 2026-04-14 21:10 | 28.48890 | -79.55602 | 28408 ft | 389 kts | 198° |
| 2026-04-14 21:11 | 28.46293 | -79.56468 | 28042 ft | 389 kts | 198° |
| 2026-04-14 21:11 | 28.43651 | -79.57350 | 27703 ft | 407 kts | 198° |
| 2026-04-14 21:11 | 28.40852 | -79.58287 | 27325 ft | 428 kts | 198° |
| 2026-04-14 21:11 | 28.37995 | -79.59240 | 26895 ft | 429 kts | 198° |
| 2026-04-14 21:12 | 28.35163 | -79.60181 | 26482 ft | 427 kts | 198° |
| 2026-04-14 21:12 | 28.32292 | -79.61134 | 26066 ft | 424 kts | 198° |
| 2026-04-14 21:12 | 28.29502 | -79.62059 | 25667 ft | 422 kts | 198° |
| 2026-04-14 21:12 | 28.26683 | -79.62995 | 25271 ft | 420 kts | 198° |
| 2026-04-14 21:13 | 28.23886 | -79.63923 | 24878 ft | 418 kts | 198° |
| 2026-04-14 21:13 | 28.21095 | -79.64848 | 24460 ft | 417 kts | 198° |
| 2026-04-14 21:13 | 28.18314 | -79.65771 | 24068 ft | 416 kts | 198° |
| 2026-04-14 21:14 | 28.12775 | -79.67606 | 23187 ft | 412 kts | 198° |
| 2026-04-14 21:14 | 28.10066 | -79.68503 | 22780 ft | 410 kts | 198° |
| 2026-04-14 21:14 | 28.07345 | -79.69404 | 22381 ft | 406 kts | 198° |
| 2026-04-14 21:14 | 28.04633 | -79.70300 | 21985 ft | 404 kts | 198° |
| 2026-04-14 21:15 | 28.01948 | -79.71188 | 21597 ft | 401 kts | 197° |
| 2026-04-14 21:15 | 27.99284 | -79.72068 | 21208 ft | 398 kts | 198° |
| 2026-04-14 21:15 | 27.96634 | -79.72943 | 20822 ft | 396 kts | 198° |
| 2026-04-14 21:15 | 27.93995 | -79.73814 | 20451 ft | 394 kts | 198° |
| 2026-04-14 21:16 | 27.91373 | -79.74679 | 20067 ft | 392 kts | 198° |
| 2026-04-14 21:16 | 27.88753 | -79.75544 | 19696 ft | 391 kts | 198° |
| 2026-04-14 21:16 | 27.86149 | -79.76402 | 19301 ft | 390 kts | 198° |
| 2026-04-14 21:16 | 27.83545 | -79.77260 | 18925 ft | 388 kts | 197° |
| 2026-04-14 21:17 | 27.80997 | -79.78099 | 18544 ft | 387 kts | 198° |
| 2026-04-14 21:17 | 27.78384 | -79.78959 | 18106 ft | 385 kts | 197° |
| 2026-04-14 21:17 | 27.75848 | -79.79793 | 17717 ft | 382 kts | 198° |
| 2026-04-14 21:17 | 27.73304 | -79.80629 | 17214 ft | 381 kts | 198° |
| 2026-04-14 21:18 | 27.70771 | -79.81461 | 16797 ft | 377 kts | 198° |
| 2026-04-14 21:18 | 27.68264 | -79.82284 | 16410 ft | 372 kts | 198° |
| 2026-04-14 21:18 | 27.65792 | -79.83096 | 16041 ft | 368 kts | 197° |
| 2026-04-14 21:18 | 27.63351 | -79.83896 | 15683 ft | 364 kts | 198° |
| 2026-04-14 21:19 | 27.60932 | -79.84690 | 15322 ft | 360 kts | 198° |
| 2026-04-14 21:19 | 27.58537 | -79.85475 | 14983 ft | 356 kts | 198° |
| 2026-04-14 21:19 | 27.56175 | -79.86249 | 14632 ft | 353 kts | 198° |
| 2026-04-14 21:19 | 27.53828 | -79.87018 | 14286 ft | 350 kts | 197° |
| 2026-04-14 21:20 | 27.51498 | -79.87781 | 13941 ft | 347 kts | 197° |
| 2026-04-14 21:20 | 27.49184 | -79.88539 | 13557 ft | 344 kts | 197° |
| 2026-04-14 21:20 | 27.46902 | -79.89286 | 13200 ft | 341 kts | 197° |
| 2026-04-14 21:20 | 27.44668 | -79.90016 | 12858 ft | 336 kts | 197° |
| 2026-04-14 21:21 | 27.42432 | -79.90747 | 12525 ft | 332 kts | 197° |
| 2026-04-14 21:21 | 27.40230 | -79.91467 | 12196 ft | 328 kts | 197° |
| 2026-04-14 21:21 | 27.38043 | -79.92181 | 11867 ft | 325 kts | 197° |
| 2026-04-14 21:21 | 27.35890 | -79.92884 | 11548 ft | 321 kts | 196° |
| 2026-04-14 21:22 | 27.33755 | -79.93581 | 11225 ft | 318 kts | 196° |
| 2026-04-14 21:22 | 27.31644 | -79.94269 | 10911 ft | 314 kts | 196° |
| 2026-04-14 21:22 | 27.29554 | -79.94951 | 10601 ft | 311 kts | 196° |
| 2026-04-14 21:22 | 27.27477 | -79.95628 | 10288 ft | 309 kts | 196° |
| 2026-04-14 21:23 | 27.25435 | -79.96294 | 10090 ft | 302 kts | 195° |
| 2026-04-14 21:23 | 27.23438 | -79.96944 | 9823 ft | 297 kts | 195° |
| 2026-04-14 21:23 | 27.21463 | -79.97587 | 9513 ft | 295 kts | 195° |
| 2026-04-14 21:23 | 27.19504 | -79.98225 | 9219 ft | 292 kts | 195° |
| 2026-04-14 21:24 | 27.17565 | -79.98856 | 8914 ft | 290 kts | 194° |
| 2026-04-14 21:24 | 27.15661 | -79.99475 | 8637 ft | 288 kts | 195° |
| 2026-04-14 21:24 | 27.13740 | -80.00100 | 8346 ft | 286 kts | 194° |
| 2026-04-14 21:24 | 27.11836 | -80.00718 | 8051 ft | 285 kts | 194° |
| 2026-04-14 21:25 | 27.09934 | -80.01336 | 7784 ft | 283 kts | 194° |
| 2026-04-14 21:25 | 27.08046 | -80.01949 | 7498 ft | 281 kts | 194° |
| 2026-04-14 21:25 | 27.06174 | -80.02557 | 7217 ft | 280 kts | 193° |
| 2026-04-14 21:25 | 27.04305 | -80.03164 | 6941 ft | 278 kts | 193° |
| 2026-04-14 21:26 | 27.02458 | -80.03763 | 6660 ft | 277 kts | 193° |
| 2026-04-14 21:26 | 27.00611 | -80.04361 | 6366 ft | 276 kts | 193° |
| 2026-04-14 21:26 | 26.98796 | -80.04950 | 6083 ft | 274 kts | 192° |
| 2026-04-14 21:26 | 26.96968 | -80.05542 | 5804 ft | 273 kts | 193° |
| 2026-04-14 21:27 | 26.95138 | -80.06135 | 5507 ft | 272 kts | 193° |
| 2026-04-14 21:27 | 26.93328 | -80.06721 | 5224 ft | 271 kts | 193° |
| 2026-04-14 21:27 | 26.91519 | -80.07307 | 4949 ft | 270 kts | 192° |
| 2026-04-14 21:27 | 26.89715 | -80.07891 | 4646 ft | 270 kts | 193° |
| 2026-04-14 21:28 | 26.87920 | -80.08472 | 4456 ft | 265 kts | 193° |
| 2026-04-14 21:28 | 26.86176 | -80.09037 | 4319 ft | 257 kts | 193° |
| 2026-04-14 21:28 | 26.84478 | -80.09587 | 4222 ft | 250 kts | 192° |
| 2026-04-14 21:28 | 26.82848 | -80.10114 | 4116 ft | 244 kts | 192° |
| 2026-04-14 21:29 | 26.81313 | -80.10840 | 4013 ft | 238 kts | 217° |
| 2026-04-14 21:29 | 26.80361 | -80.12286 | 3904 ft | 227 kts | 246° |
| 2026-04-14 21:29 | 26.79910 | -80.13904 | 3777 ft | 211 kts | 257° |
| 2026-04-14 21:29 | 26.79585 | -80.15448 | 3657 ft | 197 kts | 258° |
| 2026-04-14 21:30 | 26.79275 | -80.16924 | 3520 ft | 193 kts | 257° |
| 2026-04-14 21:30 | 26.78960 | -80.18391 | 3444 ft | 192 kts | 256° |
| 2026-04-14 21:30 | 26.78645 | -80.19842 | 3295 ft | 193 kts | 256° |
| 2026-04-14 21:30 | 26.78325 | -80.21317 | 3139 ft | 194 kts | 256° |
| 2026-04-14 21:31 | 26.77998 | -80.22774 | 2986 ft | 193 kts | 252° |
| 2026-04-14 21:31 | 26.77473 | -80.24143 | 2862 ft | 190 kts | 235° |
| 2026-04-14 21:31 | 26.76650 | -80.25313 | 2818 ft | 190 kts | 222° |
| 2026-04-14 21:31 | 26.75647 | -80.26228 | 2762 ft | 188 kts | 206° |
| 2026-04-14 21:32 | 26.74450 | -80.26830 | 2604 ft | 186 kts | 189° |
| 2026-04-14 21:32 | 26.73210 | -80.26980 | 2466 ft | 178 kts | 170° |
| 2026-04-14 21:32 | 26.72009 | -80.26726 | 2357 ft | 174 kts | 154° |
| 2026-04-14 21:32 | 26.70960 | -80.26124 | 2303 ft | 169 kts | 140° |
| 2026-04-14 21:33 | 26.70062 | -80.25281 | 2222 ft | 168 kts | 131° |
| 2026-04-14 21:33 | 26.69327 | -80.24293 | 2102 ft | 163 kts | 119° |
| 2026-04-14 21:33 | 26.68910 | -80.23223 | 2085 ft | 143 kts | 102° |
| 2026-04-14 21:33 | 26.68784 | -80.22121 | 1929 ft | 142 kts | 91° |
| 2026-04-14 21:34 | 26.68735 | -80.21064 | 1810 ft | 134 kts | 91° |
| 2026-04-14 21:34 | 26.68703 | -80.20027 | 1733 ft | 130 kts | 90° |
| 2026-04-14 21:34 | 26.68652 | -80.19002 | 1699 ft | 133 kts | 91° |
| 2026-04-14 21:34 | 26.68590 | -80.17956 | 1446 ft | 134 kts | 90° |
| 2026-04-14 21:35 | 26.68569 | -80.16941 | 1254 ft | 126 kts | 88° |
| 2026-04-14 21:35 | 26.68558 | -80.15950 | 1055 ft | 128 kts | 90° |
| 2026-04-14 21:35 | 26.68509 | -80.14974 | 889 ft | 123 kts | 92° |
| 2026-04-14 21:35 | 26.68477 | -80.14014 | 738 ft | 125 kts | 91° |
| 2026-04-14 21:36 | 26.68437 | -80.13043 | 554 ft | 127 kts | 94° |
| 2026-04-14 21:36 | 26.68374 | -80.12014 | 331 ft | 136 kts | 92° |
| 2026-04-14 21:36 | 26.68323 | -80.10995 | 152 ft | 127 kts | 89° |
| 2026-04-14 21:36 | 26.68287 | -80.10041 | 40 ft | 114 kts | 89° |
| 2026-04-14 21:37 | 26.68256 | -80.09261 | 25 ft | 84 kts | 92° |
| 2026-04-14 21:37 | 26.68234 | -80.08759 | 26 ft | 28 kts | 92° |
| 2026-04-14 21:37 | 26.68299 | -80.08636 | 29 ft | 14 kts | 25° |
| 2026-04-14 21:37 | 26.68332 | -80.08628 | 29 ft | 0 kts | 4° |
| 2026-04-14 21:38 | 26.68355 | -80.08627 | 29 ft | 7 kts | 3° |
| 2026-04-14 21:38 | 26.68394 | -80.08628 | 29 ft | 5 kts | 349° |
| 2026-04-14 21:39 | 26.68428 | -80.08649 | 28 ft | 6 kts | 323° |
| 2026-04-14 21:39 | 26.68469 | -80.08685 | 26 ft | 9 kts | 319° |
| 2026-04-14 21:39 | 26.68520 | -80.08737 | 28 ft | 11 kts | 320° |
| 2026-04-14 21:39 | 26.68588 | -80.08774 | 27 ft | 11 kts | 337° |
| 2026-04-14 21:40 | 26.68657 | -80.08813 | 27 ft | 11 kts | 341° |
| 2026-04-14 21:40 | 26.68681 | -80.08870 | 27 ft | 8 kts | 270° |
| 2026-04-14 21:40 | 26.68681 | -80.08889 | 27 ft | 0 kts | 270° |